Airfield :







YOU CAN JOIN US ON...

 
LOGIN :

Register | Disclaimer

   EN    FR    IT 

 









Legend :    VFR   Marginal VFR   IFR   Intensive IFR   Very Intensive IFR
Visi :
Ceiling :
>= 8 km
>= 3000ft
5 to 8 km
1000 to 3000 ft
1500m to 5 km
500 to 1000 ft
800 to 1500m
200 to 500 ft
< 800m
< 200 ft
Symbols :   Thunderstorms  Fog  Heavy snow  Heavy precipitations  Wind > 20 kt







- Airport Elevation : 203 ft
- IATA code : YQY


CYQY - Sydney

CURRENT METAR :
  • 211000Z 20004KT 190V300 15SM FEW070 SCT088 SCT250 13/12 A2979 RMK AC1AC2CI1 SLP092

EXPIRED METARs :
  • 210900Z 29005KT 15SM BKN086 14/13 A2978 RMK AC6 SLP086 DENSITY ALT 400FT
  • 210800Z 31011KT 15SM BKN075 BKN120 15/13 A2977 RMK AC5AC1 SLP083 DENSITY ALT 500FT

TAF TAF CYQY
Valid from the 21 at 06:00 until the 21 at 18:00 UTC


210538Z 2106/2118 26007KT P6SM BKN060
FM210900 29010KT P6SM FEW015 BKN050
TEMPO 2109/2114 P6SM -RA BKN015 OVC050
BECMG 2110/2112 34020G30KT
FM211400 34020G30KT P6SM FEW020 RMK NXT FCST BY 211200Z
No reported NOTAMs for that airfield.



MET'MAP, your aeronautical weather chart ! - Copyright ORBIFLY December 2007 - Disclaimer

ORBIFLY MET'MAP TEAM :

Programming & Development : Alexandra Zaïnal
Concept & Development : Baudouin d'Aumeries
Co-Development & Prog : Marc-Olivier Méhu
Technical & hardware support : Manuel Goepfert

Contact : metmap@orbifly.com




SOURCES & CREDITS :

   NOAA